Latest Weather Observations for Bendigo

IDV60801

Issued at 9:32 am EST Sunday 24 June 2018 (issued every 10 minutes, with the page automatically refreshed every 10 minutes)

About weather observations | Map of weather stations | Latest weather observations for VIC | Other Formats
Station Details ID: 081123 Name: BENDIGO AIRPORT Lat: -36.74 Lon: 144.33 Height: 209.17 m
Data from the previous 72 hours. | See also: Recent months at Bendigo
Date/Time
EST
Temp
°C
App
Temp
°C
Dew
Point
°C
Rel
Hum
%
Delta-T
°C
Wind Press
QNH
hPa
Press
MSL
hPa
Rain since
9am
mm
Dir  Spd
km/h
Gust
km/h
Spd
kts
Gust
kts
24/09:30am 8.2 5.2 4.2 76 1.7 SW 9 13 5 7 1030.5 1031.0 0.0
24/09:00am 5.7 2.6 3.7 87 0.8 WSW 9 11 5 6 1030.5 1031.0 0.2
24/08:30am 2.0 -0.5 1.3 95 0.3 WSW 4 6 2 3 1030.5 1031.0 0.2
24/08:00am 0.8 -2.3 0.1 95 0.3 SW 6 9 3 5 1030.2 1030.6 0.2
24/07:30am 1.0 -1.0 0.0 93 0.4 CALM 0 0 0 0 1030.0 1030.4 0.2
24/07:00am 1.9 -1.3 1.0 94 0.3 SW 7 9 4 5 1029.7 1030.1 0.2
24/06:30am 1.0 -2.4 -0.8 88 0.6 SSW 7 7 4 4 1029.5 1029.9 0.2
24/06:00am 2.6 0.0 1.0 89 0.6 SSW 4 7 2 4 1029.2 1029.6 0.2
24/05:30am 3.6 0.6 1.8 88 0.7 SSW 7 11 4 6 1029.0 1029.4 0.2
24/05:00am 4.7 1.3 1.7 81 1.2 SSW 9 11 5 6 1028.9 1029.3 0.2
24/04:30am 5.5 1.7 1.8 77 1.5 SSW 11 17 6 9 1028.9 1029.3 0.2
24/04:00am 6.5 2.0 2.4 75 1.7 S 15 20 8 11 1028.8 1029.2 0.2
24/03:30am 6.3 3.0 2.6 77 1.5 S 9 13 5 7 1028.9 1029.3 0.2
24/03:00am 6.5 2.9 2.8 77 1.5 S 11 15 6 8 1028.9 1029.3 0.2
24/02:30am 6.0 2.5 3.5 84 1.1 S 11 13 6 7 1029.1 1029.5 0.2
24/02:00am 5.6 2.0 3.1 84 1.0 S 11 13 6 7 1029.0 1029.4 0.2
24/01:30am 7.6 4.7 4.4 80 1.4 S 9 13 5 7 1028.9 1029.3 0.2
24/01:00am 8.6 5.0 5.0 78 1.6 S 13 20 7 11 1028.9 1029.3 0.2
24/12:30am 6.1 3.4 5.8 98 0.1 SSW 9 15 5 8 1028.9 1029.3 0.2
24/12:00am 4.4 3.0 3.8 96 0.3 CALM 0 0 0 0 1028.9 1029.3 0.2
 
Date/Time
EST
Temp
°C
App
Temp
°C
Dew
Point
°C
Rel
Hum
%
Delta-T
°C
Wind Press
QNH
hPa
Press
MSL
hPa
Rain since
9am
mm
Dir  Spd
km/h
Gust
km/h
Spd
kts
Gust
kts
23/11:30pm 4.5 2.0 3.9 96 0.3 S 6 7 3 4 1029.0 1029.4 0.2
23/11:00pm 5.1 2.7 4.4 95 0.3 SSE 6 7 3 4 1028.8 1029.2 0.2
23/10:30pm 6.0 4.5 4.8 92 0.5 SSW 2 7 1 4 1028.7 1029.1 0.2
23/10:00pm 7.7 6.0 6.0 89 0.8 S 4 7 2 4 1028.7 1029.1 0.2
23/09:30pm 9.2 7.2 7.0 86 1.0 S 7 9 4 5 1028.6 1029.0 0.2
23/09:00pm 9.2 6.9 7.3 88 0.9 SW 9 15 5 8 1028.6 1029.0 0.2
23/08:30pm 7.8 5.7 5.9 88 0.9 SSW 6 9 3 5 1028.4 1028.8 0.0
23/08:00pm 8.4 6.7 6.0 85 1.1 WNW 4 7 2 4 1028.2 1028.6 0.0
23/07:30pm 9.4 8.6 6.3 81 1.5 CALM 0 0 0 0 1028.0 1028.4 0.0
23/07:00pm 9.8 7.9 6.5 80 1.5 WNW 6 6 3 3 1027.7 1028.1 0.0
23/06:30pm 10.4 8.7 5.8 73 2.1 WNW 4 6 2 3 1027.4 1027.8 0.0
23/06:00pm 10.8 9.8 5.6 70 2.4 CALM 0 6 0 3 1027.2 1027.6 0.0
23/05:30pm 10.7 9.3 5.5 70 2.4 SSE 2 6 1 3 1026.9 1027.3 0.0
23/05:00pm 10.9 8.1 5.2 68 2.6 WNW 9 11 5 6 1026.6 1027.1 0.0
23/04:30pm 11.9 9.0 4.9 62 3.2 WNW 9 11 5 6 1026.4 1026.9 0.0
23/04:00pm 12.3 9.8 4.8 60 3.5 W 7 11 4 6 1026.3 1026.7 0.0
23/03:30pm 12.1 8.4 4.6 60 3.5 W 13 19 7 10 1026.2 1026.6 0.0
23/03:00pm 12.1 8.7 4.1 58 3.6 W 11 17 6 9 1026.1 1026.5 0.0
23/02:30pm 12.4 7.8 3.6 55 4.0 W 17 24 9 13 1026.0 1026.4 0.0
23/02:00pm 12.8 9.0 4.0 55 4.0 W 13 20 7 11 1026.1 1026.5 0.0
23/01:30pm 12.1 7.1 3.6 56 3.8 WSW 19 24 10 13 1026.2 1026.6 0.0
23/01:00pm 12.4 7.3 3.1 53 4.1 WNW 19 24 10 13 1026.3 1026.7 0.0
23/12:30pm 12.0 8.2 4.0 58 3.6 W 13 20 7 11 1026.9 1027.3 0.0
23/12:00pm 11.8 8.4 4.1 59 3.5 WNW 11 15 6 8 1027.2 1027.6 0.0
23/11:30am 10.1 6.8 4.7 69 2.5 WNW 11 15 6 8 1027.6 1028.0 0.0
23/11:00am 8.3 6.0 5.6 83 1.2 W 7 9 4 5 1027.9 1028.3 0.0
23/10:30am 6.6 5.2 5.7 94 0.4 N 2 6 1 3 1027.9 1028.3 0.0
23/10:00am 5.7 4.6 5.3 97 0.2 CALM 0 0 0 0 1027.9 1028.3 0.0
23/09:30am 5.5 4.5 5.4 99 0.0 CALM 0 0 0 0 1027.8 1028.2 0.0
23/09:28am 5.3 4.2 5.2 99 0.0 CALM 0 0 0 0 1027.8 1028.2 0.0
23/09:00am 3.3 1.8 3.2 99 0.0 CALM 0 0 0 0 1027.7 1028.1 0.0
23/08:30am -0.1 -2.9 -0.4 98 0.1 S 4 6 2 3 1027.6 1028.0 0.0
23/08:00am -1.0 -3.9 -1.3 98 0.1 S 4 7 2 4 1027.4 1027.8 0.0
23/07:36am -1.7 -4.0 -2.0 98 0.0 CALM 0 0 0 0 1027.0 1027.4 0.0
23/07:30am -1.7 -4.0 -2.0 98 0.0 CALM 0 0 0 0 1026.9 1027.3 0.0
23/07:00am -1.6 -3.8 -1.9 98 0.0 CALM 0 0 0 0 1026.5 1027.0 0.0
23/06:42am -1.4 -3.6 -1.7 98 0.0 CALM 0 0 0 0 1026.3 1026.7 0.0
23/06:38am -1.3 -3.5 -1.6 98 0.0 CALM 0 0 0 0 1026.2 1026.6 0.0
23/06:30am -1.5 -3.7 -1.8 98 0.0 CALM 0 0 0 0 1026.1 1026.5 0.0
23/06:00am -1.3 -3.5 -1.6 98 0.0 CALM 0 0 0 0 1026.0 1026.4 0.0
23/05:30am -0.5 -3.0 -0.8 98 0.1 S 2 6 1 3 1025.9 1026.3 0.0
23/05:00am -0.2 -3.6 -0.5 98 0.1 S 7 9 4 5 1025.9 1026.3 0.0
23/04:30am 0.0 -3.4 -0.3 98 0.1 S 7 9 4 5 1025.9 1026.3 0.0
23/04:00am 0.2 -2.9 -0.1 98 0.1 S 6 7 3 4 1025.7 1026.1 0.0
23/03:56am 0.0 -3.4 -0.3 98 0.1 S 7 11 4 6 1025.7 1026.1 0.0
23/03:48am -0.2 -3.4 -0.6 97 0.1 S 6 11 3 6 1025.8 1026.2 0.0
23/03:37am 0.3 -1.7 0.0 98 0.1 CALM 0 0 0 0 1025.8 1026.2 0.0
23/03:30am 0.1 -1.9 -0.3 97 0.2 CALM 0 0 0 0 1025.8 1026.2 0.0
23/03:00am 0.5 -1.5 0.2 98 0.1 CALM 0 0 0 0 1026.1 1026.5 0.0
23/02:30am 0.9 -1.0 0.6 98 0.1 CALM 0 0 0 0 1026.2 1026.6 0.0
23/02:00am 1.0 -0.9 0.7 98 0.1 CALM 0 0 0 0 1026.2 1026.6 0.0
23/01:36am 0.4 -1.6 0.1 98 0.1 CALM 0 0 0 0 1026.2 1026.6 0.0
23/01:30am 0.2 -1.8 -0.2 97 0.1 CALM 0 0 0 0 1026.2 1026.6 0.0
23/01:19am 0.6 -1.3 0.3 98 0.1 CALM 0 0 0 0 1026.2 1026.6 0.0
23/01:00am 0.5 -1.5 0.2 98 0.1 CALM 0 0 0 0 1026.3 1026.7 0.0
23/12:33am 0.5 -1.5 0.1 97 0.1 CALM 0 0 0 0 1026.4 1026.9 0.0
23/12:30am 0.5 -1.5 0.1 97 0.1 CALM 0 0 0 0 1026.4 1026.9 0.0
23/12:11am 1.0 -0.9 0.7 98 0.1 CALM 0 0 0 0 1026.5 1027.0 0.0
23/12:00am 0.7 -1.2 0.3 97 0.1 CALM 0 0 0 0 1026.6 1027.1 0.0
 
Date/Time
EST
Temp
°C
App
Temp
°C
Dew
Point
°C
Rel
Hum
%
Delta-T
°C
Wind Press
QNH
hPa
Press
MSL
hPa
Rain since
9am
mm
Dir  Spd
km/h
Gust
km/h
Spd
kts
Gust
kts
22/11:30pm 0.9 -1.4 0.5 97 0.1 S 2 7 1 4 1026.7 1027.2 0.0
22/11:00pm 1.0 -0.9 0.6 97 0.1 CALM 0 0 0 0 1027.0 1027.4 0.0
22/10:30pm 1.3 -0.5 0.9 97 0.2 CALM 0 0 0 0 1026.9 1027.3 0.0
22/10:00pm 1.5 -0.3 1.1 97 0.2 CALM 0 0 0 0 1026.9 1027.3 0.0
22/09:49pm 1.9 0.1 1.5 97 0.2 CALM 0 0 0 0 1026.9 1027.3 0.0
22/09:30pm 2.1 0.4 1.7 97 0.2 CALM 0 0 0 0 1027.0 1027.4 0.0
22/09:29pm 2.1 0.4 1.7 97 0.2 CALM 0 0 0 0 1027.0 1027.4 0.0
22/09:24pm 2.3 0.6 1.9 97 0.2 CALM 0 0 0 0 1027.0 1027.4 0.0
22/09:04pm 2.5 0.8 1.9 96 0.2 CALM 0 0 0 0 1026.9 1027.3 0.0
22/09:00pm 2.3 0.6 1.7 96 0.2 CALM 0 0 0 0 1026.9 1027.3 0.0
22/08:30pm 2.5 0.8 1.8 95 0.3 CALM 0 0 0 0 1027.1 1027.5 0.0
22/08:00pm 3.3 1.7 2.4 94 0.4 CALM 0 0 0 0 1027.1 1027.5 0.0
22/07:30pm 4.4 3.0 3.5 94 0.4 CALM 0 0 0 0 1027.2 1027.6 0.0
22/07:00pm 4.4 2.9 3.2 92 0.5 CALM 0 0 0 0 1027.1 1027.5 0.0
22/06:30pm 5.5 4.1 3.8 89 0.7 CALM 0 0 0 0 1026.9 1027.3 0.0
22/06:00pm 7.2 5.9 4.2 81 1.3 CALM 0 0 0 0 1026.7 1027.2 0.0
22/05:30pm 9.2 6.6 4.4 72 2.1 NNW 7 7 4 4 1026.6 1027.1 0.0
22/05:00pm 10.8 8.3 4.7 66 2.8 NW 7 9 4 5 1026.4 1026.9 0.0
22/04:30pm 12.1 9.2 4.8 61 3.4 WNW 9 15 5 8 1026.5 1027.0 0.0
22/04:00pm 12.7 9.5 5.1 60 3.5 WNW 11 15 6 8 1026.5 1027.0 0.0
22/03:30pm 11.7 9.1 4.2 60 3.4 NW 7 11 4 6 1026.5 1027.0 0.0
22/03:00pm 12.7 9.6 3.4 53 4.2 W 9 15 5 8 1026.6 1027.1 0.0
22/02:30pm 11.9 8.5 4.2 59 3.5 W 11 17 6 9 1026.7 1027.2 0.0
22/02:00pm 12.4 9.1 4.4 58 3.7 WNW 11 17 6 9 1026.9 1027.3 0.0
22/01:30pm 12.0 9.0 4.2 59 3.6 WNW 9 19 5 10 1027.2 1027.6 0.0
22/01:00pm 12.9 10.0 4.8 58 3.7 NNE 9 13 5 7 1027.4 1027.8 0.0
22/12:30pm 12.3 9.6 3.8 56 3.9 NNW 7 11 4 6 1027.7 1028.1 0.0
22/12:00pm 11.7 9.0 3.7 58 3.6 N 7 11 4 6 1028.1 1028.5 0.0
22/11:30am 11.2 9.6 4.4 63 3.1 NW 2 9 1 5 1028.5 1028.9 0.0
22/11:00am 10.2 7.7 3.7 64 2.9 N 6 7 3 4 1028.9 1029.3 0.0
22/10:30am 9.4 7.5 4.8 73 2.1 ENE 4 6 2 3 1029.3 1029.7 0.0
22/10:00am 7.2 4.8 4.5 83 1.2 SSE 6 7 3 4 1029.2 1029.6 0.0
22/09:30am 5.6 3.1 4.6 93 0.4 SSE 7 9 4 5 1029.0 1029.4 0.0
22/09:00am 4.1 2.7 3.8 98 0.1 CALM 0 0 0 0 1028.8 1029.2 0.0
22/08:30am 0.3 -2.8 0.0 98 0.1 S 6 7 3 4 1028.7 1029.1 0.0
22/08:00am -1.2 -4.2 -1.6 97 0.1 S 4 7 2 4 1028.5 1028.9 0.0
22/07:30am -1.8 -4.8 -2.2 97 0.1 SSW 4 7 2 4 1028.4 1028.8 0.0
22/07:00am -2.2 -4.5 -2.7 96 0.1 CALM 0 0 0 0 1028.2 1028.6 0.0
22/06:30am -1.5 -3.7 -1.9 97 0.1 CALM 0 2 0 1 1028.0 1028.4 0.0
22/06:00am -1.4 -4.4 -1.8 97 0.1 SSW 4 7 2 4 1027.7 1028.1 0.0
22/05:30am -1.3 -3.5 -1.7 97 0.1 CALM 0 0 0 0 1027.5 1027.9 0.0
22/05:00am -0.9 -3.1 -1.3 97 0.1 CALM 0 0 0 0 1027.4 1027.8 0.0
22/04:30am -1.5 -3.8 -2.1 96 0.1 CALM 0 0 0 0 1027.5 1027.9 0.0
22/04:00am -1.1 -3.3 -1.5 97 0.1 CALM 0 0 0 0 1027.8 1028.2 0.0
22/03:30am -0.7 -2.8 -1.1 97 0.1 CALM 0 0 0 0 1027.9 1028.3 0.0
22/03:00am -0.8 -3.0 -1.2 97 0.1 CALM 0 0 0 0 1027.9 1028.3 0.0
22/02:30am -1.0 -3.2 -1.4 97 0.1 CALM 0 0 0 0 1028.0 1028.4 0.0
22/02:00am -0.6 -2.7 -1.0 97 0.1 CALM 0 0 0 0 1028.1 1028.5 0.0
22/01:30am -0.6 -2.7 -1.0 97 0.1 CALM 0 0 0 0 1028.0 1028.4 0.0
22/01:00am -0.2 -2.3 -0.6 97 0.1 CALM 0 0 0 0 1028.0 1028.4 0.0
22/12:30am -0.6 -4.1 -1.2 96 0.2 SSW 7 7 4 4 1028.3 1028.7 0.0
22/12:00am -0.5 -2.6 -1.1 96 0.2 CALM 0 0 0 0 1028.5 1028.9 0.0
 
Date/Time
EST
Temp
°C
App
Temp
°C
Dew
Point
°C
Rel
Hum
%
Delta-T
°C
Wind Press
QNH
hPa
Press
MSL
hPa
Rain since
9am
mm
Dir  Spd
km/h
Gust
km/h
Spd
kts
Gust
kts
21/11:30pm -0.1 -2.9 -0.7 96 0.2 SSW 4 6 2 3 1028.6 1029.0 0.0
21/11:00pm 0.1 -2.7 -0.5 96 0.2 SSW 4 6 2 3 1028.7 1029.1 0.0
21/10:30pm 0.2 -1.8 -0.4 96 0.2 CALM 0 0 0 0 1028.7 1029.1 0.0
21/10:00pm 0.4 -1.6 -0.3 95 0.3 CALM 0 0 0 0 1028.8 1029.2 0.0
21/09:30pm 0.9 -1.4 0.2 95 0.3 S 2 6 1 3 1028.7 1029.1 0.0
21/09:00pm 1.2 -0.7 0.5 95 0.3 CALM 0 0 0 0 1028.7 1029.1 0.0
21/08:30pm 1.1 -2.0 0.1 93 0.4 S 6 7 3 4 1028.7 1029.1 0.0
21/08:25pm 1.4 -0.9 0.4 93 0.4 SSW 2 7 1 4 1028.7 1029.1 0.0
21/08:04pm 2.0 0.1 0.8 92 0.5 CALM 0 0 0 0 1028.5 1028.9 0.0
21/08:00pm 2.2 0.4 1.0 92 0.5 CALM 0 0 0 0 1028.5 1028.9 0.0
21/07:30pm 2.9 1.2 1.6 91 0.5 CALM 0 0 0 0 1028.4 1028.8 0.0
21/07:00pm 3.2 1.5 1.6 89 0.6 CALM 0 0 0 0 1028.2 1028.6 0.0
21/06:30pm 4.5 2.8 2.0 84 1.0 CALM 0 0 0 0 1028.0 1028.4 0.0
21/06:00pm 5.9 4.3 2.2 77 1.5 CALM 0 0 0 0 1027.8 1028.2 0.0
21/05:30pm 8.0 5.3 2.5 68 2.3 WSW 6 7 3 4 1027.5 1027.9 0.0
21/05:00pm 10.1 7.2 2.5 59 3.3 W 7 11 4 6 1027.5 1027.9 0.0
21/04:30pm 11.9 8.6 2.4 52 4.2 W 9 11 5 6 1027.3 1027.7 0.0
21/04:00pm 12.7 9.6 1.4 46 4.8 W 7 9 4 5 1027.2 1027.6 0.0
21/03:30pm 12.7 9.7 2.0 48 4.7 WNW 7 13 4 7 1027.1 1027.5 0.0
21/03:00pm 13.1 10.1 2.1 47 4.8 WNW 7 11 4 6 1027.1 1027.5 0.0
21/02:30pm 13.3 9.5 1.6 45 5.1 NW 11 17 6 9 1027.2 1027.6 0.0
21/02:00pm 13.0 8.8 1.4 45 5.0 WNW 13 17 7 9 1027.3 1027.7 0.0
21/01:30pm 13.3 9.6 4.2 54 4.2 NW 13 19 7 10 1027.4 1027.8 0.0
21/01:00pm 12.8 9.9 4.5 57 3.8 N 9 13 5 7 1027.8 1028.2 0.0
21/12:30pm 12.4 9.5 4.4 58 3.7 NNW 9 15 5 8 1028.1 1028.5 0.0
21/12:00pm 12.3 9.7 5.9 65 3.0 N 9 11 5 6 1028.4 1028.8 0.0
21/11:30am 11.1 9.8 5.8 70 2.5 NNW 2 7 1 4 1028.8 1029.2 0.0
21/11:00am 10.4 8.7 6.0 74 2.0 ESE 4 7 2 4 1029.1 1029.5 0.0
21/10:30am 9.1 7.0 5.8 80 1.5 ESE 6 7 3 4 1029.3 1029.7 0.0
21/10:00am 7.4 5.1 5.5 88 0.9 SSE 7 9 4 5 1029.4 1029.8 0.0

Other Formats:

Comma delimited format used in spreadsheet applications
http://www.bom.gov.au/fwo/IDV60801/IDV60801.94855.axf

JavaScript Object Notation format (JSON) in row-major order
http://www.bom.gov.au/fwo/IDV60801/IDV60801.94855.json